Terminal Aerodrome Forecast
Issued by NWS

Home | Current Version | Previous Version | Text Only | Print | Product List | Glossary On
Versions: 1 2 3 4 5 6 7 8 9 10 11 12 13 14 15 16
000
FTUS44 KHGX 202325
TAFCXO
TAF
KCXO 202325Z 2100/2124 14008KT P6SM FEW090
     FM210600 VRB03KT 6SM BR FEW008 BKN080
     FM210800 00000KT 2SM BR SCT008 BKN060
      TEMPO 2110/2113 1/2SM FG OVC003
     FM211400 18008KT P6SM BKN015 BKN050
     FM211800 18009KT P6SM SCT025 SCT050
     FM212100 17009KT P6SM FEW050 SCT150=

USA.gov is the U.S. government's official web portal to all federal, state and local government web resources and services.